Time;durP1;ratioP1;P1;durP2;ratioP2;P2;SDS_P1;SDS_P2;PMS_P1;PMS_P2;Temp;Humidity;BMP_temperature;BMP_pressure;BME280_temperature;BME280_humidity;BME280_pressure;Samples;Min_cycle;Max_cycle;Signal;HPM_P1;HPM_P2
2022/10/02 00:02:13;;;;;;;2.20;1.00;;;;;;;13.64;95.65;95923.22;4993492;28;20818;-82
2022/10/02 00:04:48;;;;;;;1.90;1.10;;;;;;;13.67;95.95;95916.84;4993654;28;20227;-82
2022/10/02 00:07:18;;;;;;;4.40;1.23;;;;;;;13.66;96.19;95910.84;4992580;28;20627;-82
2022/10/02 00:09:52;;;;;;;2.00;1.40;;;;;;;13.62;95.63;95912.25;4986904;28;20216;-82
2022/10/02 00:12:20;;;;;;;1.87;1.30;;;;;;;13.67;95.98;95914.25;4993004;28;20199;-82
2022/10/02 00:14:54;;;;;;;2.43;1.00;;;;;;;13.73;95.82;95927.25;4955441;28;1037180;-82
2022/10/02 00:17:28;;;;;;;3.50;1.00;;;;;;;13.77;96.06;95935.44;4993781;28;20222;-82
2022/10/02 00:19:55;;;;;;;3.43;1.10;;;;;;;13.79;95.67;95939.44;4993835;28;20976;-82
2022/10/02 00:22:33;;;;;;;2.73;0.90;;;;;;;13.80;96.28;95948.00;4993041;28;20211;-82
2022/10/02 00:25:07;;;;;;;1.77;1.00;;;;;;;13.77;97.91;95953.56;4993661;28;20219;-82
2022/10/02 00:27:46;;;;;;;2.70;1.03;;;;;;;13.70;98.92;95969.03;4992247;28;20278;-81
2022/10/02 00:30:16;;;;;;;2.30;1.13;;;;;;;13.64;100.00;95956.03;4992648;28;20226;-82
2022/10/02 00:33:00;;;;;;;2.57;1.03;;;;;;;13.59;100.00;95963.56;4993239;28;20208;-82
2022/10/02 00:35:46;;;;;;;2.60;0.97;;;;;;;13.47;100.00;95968.41;4992360;28;20228;-82
2022/10/02 00:38:24;;;;;;;2.17;1.00;;;;;;;13.43;100.00;95969.78;4992601;28;20219;-82
2022/10/02 00:41:16;;;;;;;1.57;1.07;;;;;;;13.42;100.00;95974.16;4986696;28;20188;-82
2022/10/02 00:43:55;;;;;;;3.43;1.30;;;;;;;13.38;100.00;95979.88;4992193;28;20559;-81
2022/10/02 00:46:41;;;;;;;3.23;1.00;;;;;;;13.41;100.00;95982.09;4992422;28;20199;-82
2022/10/02 00:49:49;;;;;;;2.87;1.10;;;;;;;13.36;100.00;95979.25;4992389;28;20191;-82
2022/10/02 00:52:31;;;;;;;2.10;1.00;;;;;;;13.29;100.00;95974.00;4947054;29;20216;-81
2022/10/02 00:55:20;;;;;;;2.53;1.30;;;;;;;13.33;100.00;95983.00;4983885;28;20342;-82
2022/10/02 00:58:02;;;;;;;2.43;1.13;;;;;;;13.37;100.00;95981.66;4992215;28;20275;-82
2022/10/02 01:00:30;;;;;;;4.63;1.10;;;;;;;13.44;100.00;95973.97;4991441;28;20203;-81
2022/10/02 01:03:11;;;;;;;1.67;1.10;;;;;;;13.48;100.00;95975.97;4992318;28;20575;-82
2022/10/02 01:05:38;;;;;;;2.23;1.17;;;;;;;13.53;100.00;95966.88;4991638;28;20227;-82
2022/10/02 01:08:06;;;;;;;2.97;1.10;;;;;;;13.53;100.00;95962.50;4991610;28;20234;-82
2022/10/02 01:10:36;;;;;;;2.50;1.03;;;;;;;13.55;100.00;95962.31;4986626;28;20226;-81
2022/10/02 01:13:06;;;;;;;2.67;1.20;;;;;;;13.60;100.00;95963.38;4991425;28;20210;-82
2022/10/02 01:15:36;;;;;;;4.57;1.50;;;;;;;13.64;100.00;95969.78;4991769;28;20254;-82
2022/10/02 01:18:03;;;;;;;3.27;1.30;;;;;;;13.64;100.00;95979.34;4991994;28;20200;-82
2022/10/02 01:20:35;;;;;;;4.13;1.23;;;;;;;13.64;100.00;95982.72;4991280;28;20199;-82
2022/10/02 01:23:15;;;;;;;2.97;1.20;;;;;;;13.64;100.00;95987.91;4992140;28;20200;-82
2022/10/02 01:25:46;;;;;;;2.57;1.13;;;;;;;13.61;100.00;95996.03;4991329;28;20215;-82
2022/10/02 01:28:17;;;;;;;2.40;1.67;;;;;;;13.62;100.00;95992.44;4991103;28;20199;-82
2022/10/02 01:30:48;;;;;;;2.53;1.30;;;;;;;13.56;100.00;96007.91;4991583;28;20250;-82
2022/10/02 01:33:16;;;;;;;1.93;1.20;;;;;;;13.61;100.00;96003.78;4991659;28;20200;-82
2022/10/02 01:35:44;;;;;;;2.47;1.20;;;;;;;13.61;100.00;95995.22;4991011;28;20764;-82
2022/10/02 01:38:13;;;;;;;2.53;1.10;;;;;;;13.58;100.00;95990.41;4991968;28;20207;-82
2022/10/02 01:40:41;;;;;;;2.00;1.47;;;;;;;13.61;100.00;95990.03;4989623;28;20192;-82
2022/10/02 01:43:11;;;;;;;2.70;1.10;;;;;;;13.62;100.00;95991.66;4991444;28;20199;-82
2022/10/02 01:45:51;;;;;;;2.20;1.40;;;;;;;13.65;100.00;95986.09;4991355;28;20491;-82
2022/10/02 01:48:26;;;;;;;3.60;1.30;;;;;;;13.63;100.00;95986.28;4991233;28;20227;-82
2022/10/02 01:51:04;;;;;;;3.00;1.30;;;;;;;13.64;100.00;95974.16;4985199;28;20215;-82
2022/10/02 01:53:34;;;;;;;2.80;1.10;;;;;;;13.63;100.00;95972.56;4991385;28;20682;-81
2022/10/02 01:56:12;;;;;;;1.83;1.27;;;;;;;13.64;100.00;95969.78;4991481;28;20216;-82
2022/10/02 01:58:49;;;;;;;1.90;1.13;;;;;;;13.65;100.00;95975.75;4990827;28;20683;-81
2022/10/02 02:01:29;;;;;;;2.80;1.20;;;;;;;13.62;100.00;95971.75;4990751;28;20202;-82
2022/10/02 02:04:02;;;;;;;1.87;1.30;;;;;;;13.62;100.00;95956.22;4985330;28;20199;-81
2022/10/02 02:06:33;;;;;;;2.10;1.20;;;;;;;13.58;100.00;95962.75;4990794;28;20212;-81
2022/10/02 02:09:08;;;;;;;3.57;1.63;;;;;;;13.49;100.00;95972.41;4990990;28;20206;-82
2022/10/02 02:11:39;;;;;;;2.73;1.40;;;;;;;13.44;100.00;95986.91;4990676;28;20215;-82
2022/10/02 02:14:15;;;;;;;2.10;1.00;;;;;;;13.41;100.00;95987.28;4990763;28;20617;-82
2022/10/02 02:16:44;;;;;;;2.77;1.10;;;;;;;13.37;100.00;95994.59;4991124;28;20202;-82
2022/10/02 02:19:16;;;;;;;2.63;1.10;;;;;;;13.31;100.00;95987.56;4991239;28;20207;-81
2022/10/02 02:21:47;;;;;;;2.50;1.07;;;;;;;13.29;100.00;95989.50;4990793;28;20766;-82
2022/10/02 02:24:19;;;;;;;4.03;1.20;;;;;;;13.25;100.00;95990.09;4990856;28;20222;-82
2022/10/02 02:26:47;;;;;;;2.00;1.30;;;;;;;13.27;100.00;95986.34;4989993;28;20207;-82
2022/10/02 02:29:19;;;;;;;3.07;1.00;;;;;;;13.26;100.00;95983.94;4990525;28;20912;-82
2022/10/02 02:31:51;;;;;;;1.83;1.20;;;;;;;13.31;100.00;95982.38;4989722;28;20222;-82
2022/10/02 02:34:23;;;;;;;3.23;1.20;;;;;;;13.37;100.00;95981.66;4991146;28;20611;-82
2022/10/02 02:36:55;;;;;;;1.50;0.90;;;;;;;13.38;100.00;95982.47;4990413;28;20296;-82
2022/10/02 02:39:28;;;;;;;2.60;1.10;;;;;;;13.38;100.00;95985.84;4991860;28;20380;-84
2022/10/02 02:41:58;;;;;;;3.63;1.30;;;;;;;13.34;100.00;95987.19;4986917;28;20214;-81
2022/10/02 02:44:31;;;;;;;2.53;1.17;;;;;;;13.35;100.00;95983.63;4991841;28;20247;-83
2022/10/02 02:47:05;;;;;;;3.17;1.23;;;;;;;13.40;100.00;95993.41;4990168;28;20224;-82
2022/10/02 02:49:38;;;;;;;2.47;0.90;;;;;;;13.43;100.00;95993.06;4994779;28;20789;-82
2022/10/02 02:52:09;;;;;;;3.07;0.97;;;;;;;13.43;100.00;95987.88;4995482;28;20215;-81
2022/10/02 02:54:39;;;;;;;1.73;1.00;;;;;;;13.43;100.00;95972.38;4994856;28;20222;-82
2022/10/02 02:57:09;;;;;;;2.30;1.00;;;;;;;13.45;100.00;95978.16;4989988;28;20200;-83
2022/10/02 02:59:38;;;;;;;2.10;1.00;;;;;;;13.38;100.00;95978.09;4995956;28;20206;-82
2022/10/02 03:02:05;;;;;;;4.87;1.37;;;;;;;13.36;100.00;95981.84;4997035;28;20203;-83
2022/10/02 03:04:32;;;;;;;3.60;1.10;;;;;;;13.36;100.00;95984.41;4996852;28;20223;-82
2022/10/02 03:07:02;;;;;;;2.80;1.17;;;;;;;13.40;100.00;95990.84;4996648;28;20230;-82
2022/10/02 03:09:32;;;;;;;2.73;1.07;;;;;;;13.40;100.00;95991.63;4996037;28;20238;-82
2022/10/02 03:12:12;;;;;;;2.07;1.10;;;;;;;13.37;100.00;95994.59;4993216;28;20686;-82
2022/10/02 03:15:01;;;;;;;2.00;1.03;;;;;;;13.45;100.00;95993.69;4994622;28;20235;-83
2022/10/02 03:17:40;;;;;;;4.20;1.13;;;;;;;13.48;100.00;95986.34;4995853;28;20195;-82
2022/10/02 03:20:15;;;;;;;4.13;1.33;;;;;;;13.51;100.00;95979.19;4991110;28;20196;-81
2022/10/02 03:22:47;;;;;;;3.43;1.10;;;;;;;13.49;100.00;95984.53;4995599;28;20206;-82
2022/10/02 03:25:21;;;;;;;3.97;1.60;;;;;;;13.48;100.00;95978.56;4995479;28;20215;-82
2022/10/02 03:27:52;;;;;;;2.07;0.93;;;;;;;13.40;100.00;95985.66;4995090;28;20195;-82
2022/10/02 03:30:20;;;;;;;3.07;1.40;;;;;;;13.39;100.00;95982.28;4995503;28;20571;-82
2022/10/02 03:32:50;;;;;;;4.10;1.40;;;;;;;13.43;100.00;95986.09;4994601;28;20199;-82
2022/10/02 03:35:17;;;;;;;2.53;0.83;;;;;;;13.40;100.00;95968.38;4995124;28;20220;-82
2022/10/02 03:37:53;;;;;;;3.10;1.33;;;;;;;13.45;100.00;95970.41;4995380;28;20195;-83
2022/10/02 03:40:23;;;;;;;2.80;1.00;;;;;;;13.46;100.00;95980.56;4994881;28;20291;-81
2022/10/02 03:42:50;;;;;;;4.50;1.30;;;;;;;13.46;100.00;95987.53;4993966;28;20479;-82
2022/10/02 03:45:17;;;;;;;3.33;1.03;;;;;;;13.49;100.00;95987.94;4995078;28;20786;-81
2022/10/02 03:47:45;;;;;;;2.73;1.30;;;;;;;13.57;100.00;95976.69;4994920;28;20207;-83
2022/10/02 03:50:14;;;;;;;2.67;1.10;;;;;;;13.51;100.00;95979.19;4994441;28;20203;-84
2022/10/02 03:52:55;;;;;;;2.23;0.90;;;;;;;13.54;100.00;95974.44;4995196;28;20211;-82
2022/10/02 03:55:31;;;;;;;3.27;1.20;;;;;;;13.49;100.00;95966.44;4994774;28;20222;-82
2022/10/02 03:57:58;;;;;;;3.80;1.30;;;;;;;13.51;100.00;95958.50;4991610;28;20230;-83
2022/10/02 04:00:30;;;;;;;2.37;1.10;;;;;;;13.49;100.00;95967.25;4990742;28;20564;-82
2022/10/02 04:03:03;;;;;;;2.60;1.20;;;;;;;13.47;100.00;95976.97;4994743;28;20671;-82
2022/10/02 04:05:39;;;;;;;4.80;1.37;;;;;;;13.54;100.00;95979.63;4994051;28;20815;-84
2022/10/02 04:08:16;;;;;;;4.43;1.00;;;;;;;13.61;100.00;95979.69;4989389;28;20195;-82
2022/10/02 04:10:50;;;;;;;3.23;1.27;;;;;;;13.57;100.00;95968.13;4993740;28;20214;-82
2022/10/02 04:13:24;;;;;;;2.80;1.17;;;;;;;13.53;100.00;95970.25;4993862;28;20211;-82
2022/10/02 04:16:14;;;;;;;3.73;1.10;;;;;;;13.49;100.00;95971.59;4994256;28;20211;-81
2022/10/02 04:18:50;;;;;;;3.63;1.10;;;;;;;13.45;100.00;95970.41;4993897;28;20291;-82
2022/10/02 04:21:35;;;;;;;2.20;1.33;;;;;;;13.47;100.00;95968.41;4993554;28;20195;-81
2022/10/02 04:24:12;;;;;;;3.37;1.37;;;;;;;13.47;100.00;95971.00;4993386;28;20675;-82
2022/10/02 04:26:44;;;;;;;2.87;1.30;;;;;;;13.48;100.00;95963.03;4993679;28;20196;-82
2022/10/02 04:29:18;;;;;;;3.33;1.03;;;;;;;13.47;100.00;95961.44;4993174;28;20209;-82
2022/10/02 04:31:52;;;;;;;2.60;1.20;;;;;;;13.48;100.00;95968.22;4993843;28;20290;-82
2022/10/02 04:34:20;;;;;;;1.43;1.20;;;;;;;13.49;100.00;95959.47;4993989;28;20219;-82
2022/10/02 04:37:02;;;;;;;2.07;1.20;;;;;;;13.49;100.00;95961.25;4993928;28;20619;-81
2022/10/02 04:40:05;;;;;;;3.47;1.10;;;;;;;13.51;100.00;95966.25;4993611;28;20206;-83
2022/10/02 04:42:44;;;;;;;2.60;1.20;;;;;;;13.53;100.00;95970.25;4991598;28;20199;-82
2022/10/02 04:45:30;;;;;;;1.50;1.00;;;;;;;13.56;100.00;95958.75;4988563;28;20226;-81
2022/10/02 04:48:33;;;;;;;1.40;0.93;;;;;;;13.53;100.00;95967.66;4993661;28;20207;-82
2022/10/02 04:51:13;;;;;;;2.57;1.20;;;;;;;13.58;100.00;95973.09;4992443;28;20223;-84
2022/10/02 04:54:07;;;;;;;3.53;1.40;;;;;;;13.59;100.00;95960.97;4992746;28;20211;-82
2022/10/02 04:56:55;;;;;;;2.33;1.10;;;;;;;13.59;100.00;95961.78;4991754;28;20223;-82
2022/10/02 04:59:42;;;;;;;2.40;1.40;;;;;;;13.60;100.00;95967.75;4991271;28;20214;-81
2022/10/02 05:02:26;;;;;;;5.27;1.47;;;;;;;13.64;100.00;95954.25;4992736;28;20369;-82
2022/10/02 05:05:18;;;;;;;2.47;1.40;;;;;;;13.64;100.00;95953.47;4992016;28;20219;-82
2022/10/02 05:08:15;;;;;;;2.67;1.20;;;;;;;13.67;100.00;95953.84;4985027;28;20215;-82
2022/10/02 05:10:58;;;;;;;4.07;1.37;;;;;;;13.66;100.00;95961.84;4991442;28;20200;-83
2022/10/02 05:13:38;;;;;;;2.90;1.27;;;;;;;13.64;100.00;95964.59;4992204;28;20612;-81
2022/10/02 05:16:19;;;;;;;3.03;1.30;;;;;;;13.57;100.00;95971.50;4986817;28;20215;-84
2022/10/02 05:19:01;;;;;;;3.43;1.40;;;;;;;13.64;100.00;95971.56;4992718;28;20195;-84
2022/10/02 05:21:47;;;;;;;2.37;1.40;;;;;;;13.65;100.00;95966.22;4992974;28;20199;-82
2022/10/02 05:24:37;;;;;;;2.27;1.20;;;;;;;13.71;100.00;95964.66;4987898;28;20223;-82
2022/10/02 05:27:29;;;;;;;3.93;1.33;;;;;;;13.71;100.00;95969.81;4986336;28;20223;-82
2022/10/02 05:30:09;;;;;;;3.93;1.40;;;;;;;13.69;100.00;95964.03;4991291;28;20675;-82
2022/10/02 05:33:02;;;;;;;2.57;1.20;;;;;;;13.65;100.00;95966.22;4993010;28;20226;-82
2022/10/02 05:35:44;;;;;;;2.13;1.10;;;;;;;13.68;100.00;95965.00;4989069;28;20226;-82
2022/10/02 05:38:23;;;;;;;5.13;1.63;;;;;;;13.69;100.00;95979.56;4987507;28;20218;-82
2022/10/02 05:41:00;;;;;;;3.63;1.37;;;;;;;13.70;100.00;95973.41;4992751;28;20214;-82
2022/10/02 05:43:37;;;;;;;3.57;1.20;;;;;;;13.70;100.00;95960.47;4993171;28;20200;-83
2022/10/02 05:46:10;;;;;;;3.13;1.47;;;;;;;13.72;100.00;95964.47;4992418;28;20592;-82
2022/10/02 05:48:43;;;;;;;3.23;1.20;;;;;;;13.74;100.00;95964.28;4990319;28;20223;-82
2022/10/02 05:51:16;;;;;;;3.83;1.53;;;;;;;13.75;100.00;95958.13;4985669;28;20243;-83
2022/10/02 05:53:49;;;;;;;2.30;1.37;;;;;;;13.76;100.00;95957.13;4986040;28;20303;-82
2022/10/02 05:56:22;;;;;;;5.23;1.40;;;;;;;13.77;100.00;95959.53;4989282;28;20199;-83
2022/10/02 05:58:54;;;;;;;3.40;1.20;;;;;;;13.80;100.00;95964.34;4990526;28;20211;-82
2022/10/02 06:01:26;;;;;;;2.10;1.40;;;;;;;13.79;100.00;95967.13;4990549;28;20286;-82
2022/10/02 06:04:02;;;;;;;3.43;1.63;;;;;;;13.80;100.00;95972.09;4982890;28;20191;-84
2022/10/02 06:06:37;;;;;;;6.27;1.40;;;;;;;13.75;100.00;95977.03;4991296;28;20244;-82
2022/10/02 06:09:12;;;;;;;4.87;1.50;;;;;;;13.79;100.00;95977.47;4988319;28;20206;-82
2022/10/02 06:11:46;;;;;;;3.23;1.50;;;;;;;13.81;100.00;95978.09;4986745;28;20267;-82
2022/10/02 06:14:20;;;;;;;3.17;1.63;;;;;;;13.77;100.00;95977.66;4982901;28;20282;-82
2022/10/02 06:16:52;;;;;;;3.60;1.30;;;;;;;13.72;100.00;95987.75;4991198;28;20234;-82
2022/10/02 06:19:25;;;;;;;4.53;1.40;;;;;;;13.66;100.00;95990.31;4991307;28;20210;-82
2022/10/02 06:21:55;;;;;;;3.80;1.45;;;;;;;13.69;100.00;95987.31;4990514;28;20707;-82
2022/10/02 06:24:29;;;;;;;3.53;1.77;;;;;;;13.73;100.00;95989.34;4993214;28;20223;-82
2022/10/02 06:27:02;;;;;;;3.67;1.50;;;;;;;13.76;100.00;95986.41;4994508;28;20196;-82
2022/10/02 06:29:33;;;;;;;2.77;1.40;;;;;;;13.82;100.00;95992.63;4993892;28;20290;-83
2022/10/02 06:32:13;;;;;;;4.20;1.53;;;;;;;13.84;100.00;95988.06;4993941;28;20219;-82
2022/10/02 06:34:39;;;;;;;3.63;1.73;;;;;;;13.79;100.00;95996.38;4994318;28;20219;-82
2022/10/02 06:37:27;;;;;;;2.47;1.33;;;;;;;13.80;100.00;95992.81;4991142;28;20215;-82
2022/10/02 06:40:12;;;;;;;3.73;1.50;;;;;;;13.69;100.00;95990.69;4993182;28;20203;-82
2022/10/02 06:42:56;;;;;;;2.70;1.43;;;;;;;13.73;100.00;95986.75;4993735;28;20200;-82
2022/10/02 06:45:31;;;;;;;3.37;1.53;;;;;;;13.65;100.00;95999.03;4991389;28;21005;-82
2022/10/02 06:48:05;;;;;;;1.93;1.37;;;;;;;13.70;100.00;95991.50;4996083;28;20196;-83
2022/10/02 06:50:41;;;;;;;2.17;1.40;;;;;;;13.73;100.00;95989.34;4996668;28;20245;-82
2022/10/02 06:53:21;;;;;;;2.00;1.40;;;;;;;13.74;100.00;96005.69;4991566;28;20215;-83
2022/10/02 06:55:58;;;;;;;2.90;1.50;;;;;;;13.77;100.00;95998.34;4998362;28;20230;-83
2022/10/02 06:58:47;;;;;;;6.57;2.10;;;;;;;13.85;100.00;95994.03;4996822;28;20576;-82
2022/10/02 07:01:24;;;;;;;3.37;1.63;;;;;;;13.87;100.00;95995.44;4991043;28;20239;-81
2022/10/02 07:04:08;;;;;;;6.00;1.70;;;;;;;14.05;100.00;95995.78;5000010;28;20220;-85
2022/10/02 07:06:47;;;;;;;3.07;1.57;;;;;;;14.27;100.00;96001.72;5000626;28;20214;-82
2022/10/02 07:09:49;;;;;;;4.67;1.60;;;;;;;14.25;100.00;96001.09;4989664;28;20203;-82
2022/10/02 07:12:32;;;;;;;4.57;1.60;;;;;;;14.12;100.00;95996.63;4995330;28;20231;-83
2022/10/02 07:15:18;;;;;;;5.47;2.20;;;;;;;14.01;100.00;95993.78;4995545;28;20822;-82
2022/10/02 07:17:56;;;;;;;2.47;1.40;;;;;;;13.89;100.00;95992.66;4994514;28;20707;-82
2022/10/02 07:20:31;;;;;;;2.43;1.43;;;;;;;13.87;100.00;96002.41;4995641;28;20196;-82
2022/10/02 07:23:19;;;;;;;4.40;1.70;;;;;;;13.91;100.00;95998.47;4994717;28;20192;-82
2022/10/02 07:26:16;;;;;;;6.57;2.00;;;;;;;13.90;100.00;96002.03;4994958;28;20220;-83
2022/10/02 07:28:48;;;;;;;6.23;2.13;;;;;;;13.95;100.00;96000.50;4993795;28;20565;-81
2022/10/02 07:31:28;;;;;;;3.20;1.53;;;;;;;13.89;100.00;96005.59;4988560;28;20211;-82
2022/10/02 07:34:08;;;;;;;2.97;1.83;;;;;;;13.89;100.00;96000.44;4993809;28;20683;-82
2022/10/02 07:36:45;;;;;;;3.10;1.70;;;;;;;13.89;100.00;95998.66;4995951;28;20867;-82
2022/10/02 07:39:26;;;;;;;3.53;1.90;;;;;;;13.94;100.00;95990.31;4990027;28;20202;-81
2022/10/02 07:42:16;;;;;;;4.67;1.70;;;;;;;13.97;100.00;95997.72;4994779;28;20203;-82
2022/10/02 07:45:01;;;;;;;4.43;1.57;;;;;;;13.99;100.00;95986.19;4993742;28;20230;-82
2022/10/02 07:47:45;;;;;;;3.70;1.60;;;;;;;13.96;100.00;95991.75;4993635;28;20218;-82
2022/10/02 07:50:17;;;;;;;4.40;1.60;;;;;;;13.95;100.00;95981.56;4996347;28;20202;-83
2022/10/02 07:52:52;;;;;;;3.13;1.90;;;;;;;13.95;100.00;95991.94;4997236;28;20230;-82
2022/10/02 07:55:21;;;;;;;4.70;1.63;;;;;;;13.92;100.00;95982.75;4990507;28;20226;-82
2022/10/02 07:57:59;;;;;;;5.70;1.80;;;;;;;14.00;100.00;95985.22;4995643;28;20204;-82
2022/10/02 08:00:28;;;;;;;4.47;1.70;;;;;;;14.00;100.00;95979.22;4995083;28;20196;-82
2022/10/02 08:02:59;;;;;;;2.27;1.37;;;;;;;13.92;100.00;95982.75;4995805;28;20274;-81
2022/10/02 08:05:30;;;;;;;3.30;1.90;;;;;;;13.91;100.00;95988.91;4995831;28;20239;-82
2022/10/02 08:08:00;;;;;;;3.47;1.47;;;;;;;14.02;100.00;95990.19;4995357;28;20596;-81
2022/10/02 08:10:36;;;;;;;5.63;1.70;;;;;;;14.10;100.00;95974.50;4995121;28;20651;-82
2022/10/02 08:13:13;;;;;;;5.00;1.57;;;;;;;14.08;100.00;95974.69;4993754;28;20593;-81
2022/10/02 08:15:46;;;;;;;6.27;2.07;;;;;;;14.09;100.00;95972.91;4994193;28;20223;-87
2022/10/02 08:18:23;;;;;;;6.45;1.95;;;;;;;14.36;100.00;95974.69;4985272;28;20621;-86
2022/10/02 08:20:52;;;;;;;3.03;1.52;;;;;;;14.59;100.00;95971.06;4991378;28;20203;-86
2022/10/02 08:23:23;;;;;;;4.90;1.92;;;;;;;14.76;100.00;95964.56;4991968;28;20950;-87
2022/10/02 08:25:57;;;;;;;3.75;1.80;;;;;;;14.92;100.00;95961.63;4991725;28;20319;-86
2022/10/02 08:28:30;;;;;;;6.30;2.03;;;;;;;14.98;100.00;95960.88;4993256;28;20202;-85
2022/10/02 08:30:57;;;;;;;7.35;3.35;;;;;;;15.06;99.99;95968.47;4992922;28;20200;-86
2022/10/02 08:33:25;;;;;;;6.95;2.53;;;;;;;15.15;99.43;95969.09;4993790;28;20245;-82
2022/10/02 08:36:15;;;;;;;5.43;1.73;;;;;;;15.02;98.22;95966.44;4993847;28;20216;-82
2022/10/02 08:38:46;;;;;;;3.17;1.65;;;;;;;14.97;98.81;95955.88;4992892;28;20235;-82
2022/10/02 08:41:46;;;;;;;5.32;2.10;;;;;;;14.83;99.72;95953.22;4993455;28;20200;-82
2022/10/02 08:45:03;;;;;;;5.93;1.75;;;;;;;14.76;100.00;95942.03;4959739;28;20212;-81
2022/10/02 08:48:04;;;;;;;2.33;1.27;;;;;;;14.69;100.00;95951.56;4911982;29;20206;-83
2022/10/02 08:51:16;;;;;;;3.78;1.60;;;;;;;14.70;100.00;95957.56;4986664;28;20203;-81
2022/10/02 08:54:23;;;;;;;3.38;1.65;;;;;;;14.68;100.00;95947.38;4990490;28;20302;-81
2022/10/02 08:57:12;;;;;;;3.88;1.40;;;;;;;14.64;100.00;95937.59;4991205;28;20687;-82
2022/10/02 09:00:13;;;;;;;3.40;1.52;;;;;;;14.56;100.00;95935.16;4992371;28;20196;-83
2022/10/02 09:03:26;;;;;;;2.33;1.40;;;;;;;14.61;100.00;95932.81;4992626;28;20264;-80
2022/10/02 09:06:25;;;;;;;2.30;1.42;;;;;;;14.67;100.00;95916.47;4991612;28;20617;-81
2022/10/02 09:09:33;;;;;;;2.95;1.85;;;;;;;14.69;100.00;95919.66;4992351;28;20683;-80
2022/10/02 09:12:30;;;;;;;3.38;1.52;;;;;;;14.69;100.00;95915.28;4991453;28;20230;-81
2022/10/02 09:15:06;;;;;;;4.40;1.40;;;;;;;14.75;100.00;95908.53;4991859;28;20219;-81
2022/10/02 09:17:43;;;;;;;3.42;1.60;;;;;;;14.76;100.00;95899.75;4991843;28;20199;-81
2022/10/02 09:20:40;;;;;;;2.83;1.58;;;;;;;14.84;100.00;95897.78;4991486;28;20615;-80
2022/10/02 09:23:37;;;;;;;4.28;1.88;;;;;;;14.88;100.00;95905.97;4992021;28;20802;-81
2022/10/02 09:26:17;;;;;;;2.85;1.63;;;;;;;14.95;100.00;95904.22;4992162;28;20220;-82
2022/10/02 09:29:07;;;;;;;4.85;2.58;;;;;;;14.99;100.00;95889.06;4992170;28;20690;-81
2022/10/02 09:32:08;;;;;;;5.07;1.73;;;;;;;15.08;100.00;95904.22;4988756;28;20202;-82
2022/10/02 09:35:07;;;;;;;2.25;1.40;;;;;;;15.08;100.00;95893.06;4987546;28;20220;-82
2022/10/02 09:38:07;;;;;;;2.40;1.60;;;;;;;15.09;100.00;95881.69;4949307;28;20562;-83
2022/10/02 09:41:14;;;;;;;4.78;2.00;;;;;;;15.07;100.00;95884.47;4987978;28;20199;-81
2022/10/02 09:44:21;;;;;;;2.40;1.30;;;;;;;15.06;100.00;95869.91;4989500;28;20199;-81
2022/10/02 09:47:18;;;;;;;3.25;1.70;;;;;;;15.09;100.00;95859.16;4970077;28;20196;-82
2022/10/02 09:50:17;;;;;;;2.70;1.60;;;;;;;15.12;100.00;95858.75;4990148;28;20250;-82
2022/10/02 09:53:17;;;;;;;3.28;1.85;;;;;;;15.19;100.00;95856.97;4989889;28;20227;-83
2022/10/02 09:56:13;;;;;;;2.72;1.95;;;;;;;15.26;100.00;95863.94;4993595;28;20237;-80
2022/10/02 09:59:13;;;;;;;3.35;1.90;;;;;;;15.30;100.00;95855.59;4963232;28;20195;-80
2022/10/02 10:02:27;;;;;;;3.80;1.88;;;;;;;15.29;100.00;95842.81;4989785;28;20191;-81
2022/10/02 10:05:25;;;;;;;3.28;1.80;;;;;;;15.37;100.00;95848.59;4991622;28;20214;-81
2022/10/02 10:08:44;;;;;;;4.70;2.10;;;;;;;15.39;100.00;95833.63;4991640;28;20210;-81
2022/10/02 10:11:47;;;;;;;2.08;1.60;;;;;;;15.44;100.00;95841.59;4910826;29;20236;-84
2022/10/02 10:14:51;;;;;;;4.97;1.92;;;;;;;15.51;100.00;95836.41;4910847;29;20340;-84
2022/10/02 10:17:55;;;;;;;1.50;1.40;;;;;;;15.61;100.00;95834.22;4982074;28;20203;-81
2022/10/02 10:20:41;;;;;;;2.53;1.30;;;;;;;15.72;100.00;95828.44;4991880;28;20213;-81
2022/10/02 10:23:23;;;;;;;2.03;1.17;;;;;;;15.71;100.00;95836.44;4992059;28;20191;-81
2022/10/02 10:26:15;;;;;;;2.28;1.00;;;;;;;15.78;100.00;95837.19;4992034;28;20798;-82
2022/10/02 10:29:13;;;;;;;1.13;0.88;;;;;;;15.86;100.00;95829.22;4987839;28;20283;-82
2022/10/02 10:32:31;;;;;;;2.58;1.33;;;;;;;15.97;100.00;95825.97;4987760;28;20286;-81
2022/10/02 10:35:24;;;;;;;0.93;0.90;;;;;;;15.98;100.00;95814.59;4990084;28;20215;-80
2022/10/02 10:41:11;;;;;;;2.30;1.10;;;;;;;16.09;100.00;95810.56;4951470;29;20220;-81
2022/10/02 10:44:06;;;;;;;1.10;1.02;;;;;;;16.14;100.00;95811.56;4987367;28;20728;-81
2022/10/02 10:46:59;;;;;;;1.65;0.90;;;;;;;16.25;100.00;95807.50;4987843;28;20203;-81
2022/10/02 10:50:04;;;;;;;1.73;1.10;;;;;;;16.31;100.00;95811.91;4986292;28;20844;-81
2022/10/02 10:53:10;;;;;;;0.95;0.90;;;;;;;16.47;100.00;95798.44;4973062;28;20636;-82
2022/10/02 10:56:09;;;;;;;2.10;1.00;;;;;;;16.67;100.00;95803.56;4945498;28;20307;-81
2022/10/02 10:58:52;;;;;;;0.90;0.90;;;;;;;16.84;100.00;95790.84;4982476;28;20210;-81
2022/10/02 11:01:21;;;;;;;0.98;0.80;;;;;;;17.05;100.00;95785.28;4984314;28;20222;-81
2022/10/02 11:04:14;;;;;;;0.73;0.73;;;;;;;17.03;96.44;95784.72;4992178;28;20191;-80
2022/10/02 11:07:01;;;;;;;2.72;0.90;;;;;;;17.00;96.56;95779.13;4989728;28;20234;-82
2022/10/02 11:09:49;;;;;;;0.70;0.70;;;;;;;17.07;97.60;95782.47;4993072;28;20589;-82
2022/10/02 11:12:50;;;;;;;1.20;0.73;;;;;;;17.09;95.21;95773.47;4988035;28;20290;-81
2022/10/02 11:15:49;;;;;;;2.05;1.00;;;;;;;17.18;94.64;95779.19;4993859;28;20227;-81
2022/10/02 11:18:33;;;;;;;3.70;3.38;;;;;;;17.19;95.50;95781.56;4993766;28;20188;-82
2022/10/02 11:21:24;;;;;;;1.05;0.95;;;;;;;17.22;93.48;95780.34;4994703;28;20286;-82
2022/10/02 11:24:18;;;;;;;1.20;0.68;;;;;;;17.27;93.37;95775.31;4992656;28;20196;-81
2022/10/02 11:27:23;;;;;;;1.48;0.70;;;;;;;17.46;91.22;95778.75;4991300;28;20191;-81
2022/10/02 11:30:20;;;;;;;0.70;0.70;;;;;;;17.64;88.95;95763.19;4968419;28;20195;-81
2022/10/02 11:33:11;;;;;;;0.95;0.60;;;;;;;17.82;87.58;95750.16;4989230;28;20224;-81
2022/10/02 11:35:54;;;;;;;0.60;0.60;;;;;;;18.11;87.18;95746.00;4987044;28;20224;-81
2022/10/02 11:39:04;;;;;;;2.17;1.98;;;;;;;18.40;84.23;95739.25;4994779;28;20742;-81
2022/10/02 11:42:24;;;;;;;1.55;1.35;;;;;;;18.45;82.75;95736.78;4994726;28;20562;-85
2022/10/02 11:45:08;;;;;;;1.05;0.60;;;;;;;18.52;82.38;95734.84;4928911;29;20236;-85
2022/10/02 11:48:07;;;;;;;2.92;1.08;;;;;;;18.53;80.96;95731.22;4988949;28;20563;-85
2022/10/02 11:50:57;;;;;;;1.75;1.25;;;;;;;18.51;79.84;95728.03;4997169;28;20207;-85
2022/10/02 11:54:02;;;;;;;1.15;0.80;;;;;;;18.49;80.01;95722.25;4979393;28;20224;-85
2022/10/02 11:56:48;;;;;;;1.15;0.75;;;;;;;18.46;79.48;95721.91;4958439;28;20200;-85
2022/10/02 11:59:43;;;;;;;2.20;1.77;;;;;;;18.49;79.84;95714.44;4997946;28;20191;-85
2022/10/02 12:02:15;;;;;;;1.65;1.30;;;;;;;18.51;80.43;95719.41;4997615;28;20204;-84
2022/10/02 12:04:56;;;;;;;0.65;0.65;;;;;;;18.41;79.09;95719.97;4997067;28;20262;-86
2022/10/02 12:07:41;;;;;;;0.60;0.60;;;;;;;18.39;79.56;95716.78;4996911;28;20625;-84
2022/10/02 12:10:31;;;;;;;0.50;0.50;;;;;;;18.30;80.49;95710.28;4994235;28;20371;-82
2022/10/02 12:13:16;;;;;;;0.63;0.60;;;;;;;18.21;79.95;95711.63;4994527;28;20223;-81
2022/10/02 12:15:50;;;;;;;0.82;0.70;;;;;;;18.17;81.43;95713.88;4990434;28;20290;-81
2022/10/02 12:18:32;;;;;;;1.30;0.80;;;;;;;18.14;81.15;95710.91;4992688;28;20195;-82
2022/10/02 12:27:02;;;;;;;0.70;0.65;;;;;;;18.36;79.70;95696.38;4992335;28;20603;-82
2022/10/02 12:29:42;;;;;;;0.90;0.60;;;;;;;18.50;78.39;95704.78;4995746;28;20207;-82
2022/10/02 12:32:22;;;;;;;0.55;0.52;;;;;;;18.62;77.74;95676.97;4994150;28;20227;-82
2022/10/02 12:34:59;;;;;;;0.75;0.52;;;;;;;18.74;77.97;95679.59;4995090;28;20224;-82
2022/10/02 12:37:32;;;;;;;0.60;0.60;;;;;;;18.66;78.22;95664.28;4995197;28;20203;-83
2022/10/02 12:40:12;;;;;;;1.25;0.60;;;;;;;18.56;78.07;95659.56;4994915;28;20195;-82
2022/10/02 12:43:10;;;;;;;0.50;0.50;;;;;;;18.53;78.13;95668.63;4994717;28;20214;-83